sensor_id;sensor_type;location;lat;lon;timestamp;pressure;altitude;pressure_sealevel;temperature;humidity
49108;BME280;36693;47.666;-2.774;2022-08-01T00:01:28;101707.56;;;25.02;44.06
49108;BME280;36693;47.666;-2.774;2022-08-01T00:03:56;101706.54;;;24.53;44.46
49108;BME280;36693;47.666;-2.774;2022-08-01T00:06:24;101703.18;;;24.94;43.74
49108;BME280;36693;47.666;-2.774;2022-08-01T00:08:51;101702.68;;;25.14;43.68
49108;BME280;36693;47.666;-2.774;2022-08-01T00:11:20;101702.60;;;24.97;43.54
49108;BME280;36693;47.666;-2.774;2022-08-01T00:13:48;101704.86;;;24.82;43.71
49108;BME280;36693;47.666;-2.774;2022-08-01T00:16:15;101703.29;;;24.68;43.88
49108;BME280;36693;47.666;-2.774;2022-08-01T00:18:43;101702.96;;;24.60;44.05
49108;BME280;36693;47.666;-2.774;2022-08-01T00:21:11;101699.16;;;25.02;43.59
49108;BME280;36693;47.666;-2.774;2022-08-01T00:23:38;101697.79;;;24.83;43.77
49108;BME280;36693;47.666;-2.774;2022-08-01T00:26:06;101693.84;;;24.86;43.73
49108;BME280;36693;47.666;-2.774;2022-08-01T00:28:34;101695.10;;;24.61;44.22
49108;BME280;36693;47.666;-2.774;2022-08-01T00:31:01;101693.72;;;24.67;44.06
49108;BME280;36693;47.666;-2.774;2022-08-01T00:33:29;101691.99;;;24.55;43.78
49108;BME280;36693;47.666;-2.774;2022-08-01T00:35:57;101690.97;;;24.82;43.68
49108;BME280;36693;47.666;-2.774;2022-08-01T00:38:25;101688.20;;;24.37;44.76
49108;BME280;36693;47.666;-2.774;2022-08-01T00:40:53;101685.50;;;24.31;44.39
49108;BME280;36693;47.666;-2.774;2022-08-01T00:43:21;101686.43;;;24.84;44.22
49108;BME280;36693;47.666;-2.774;2022-08-01T00:45:49;101683.02;;;24.50;44.06
49108;BME280;36693;47.666;-2.774;2022-08-01T00:48:17;101683.38;;;24.57;43.82
49108;BME280;36693;47.666;-2.774;2022-08-01T00:50:45;101682.73;;;24.57;43.77
49108;BME280;36693;47.666;-2.774;2022-08-01T00:53:13;101682.31;;;24.32;44.13
49108;BME280;36693;47.666;-2.774;2022-08-01T00:55:41;101680.60;;;24.33;44.04
49108;BME280;36693;47.666;-2.774;2022-08-01T00:58:10;101678.38;;;24.22;44.28
49108;BME280;36693;47.666;-2.774;2022-08-01T01:00:37;101679.44;;;24.12;44.37
49108;BME280;36693;47.666;-2.774;2022-08-01T01:03:05;101675.42;;;24.00;44.54
49108;BME280;36693;47.666;-2.774;2022-08-01T01:05:39;101673.98;;;23.89;44.65
49108;BME280;36693;47.666;-2.774;2022-08-01T01:08:16;101676.31;;;23.93;45.27
49108;BME280;36693;47.666;-2.774;2022-08-01T01:10:54;101674.93;;;23.78;45.44
49108;BME280;36693;47.666;-2.774;2022-08-01T01:13:35;101672.31;;;23.83;45.44
49108;BME280;36693;47.666;-2.774;2022-08-01T01:16:10;101669.86;;;23.82;45.39
49108;BME280;36693;47.666;-2.774;2022-08-01T01:18:45;101666.07;;;23.74;45.44
49108;BME280;36693;47.666;-2.774;2022-08-01T01:21:26;101666.31;;;23.82;45.31
49108;BME280;36693;47.666;-2.774;2022-08-01T01:24:07;101662.89;;;23.69;44.71
49108;BME280;36693;47.666;-2.774;2022-08-01T01:26:50;101660.93;;;24.08;44.76
49108;BME280;36693;47.666;-2.774;2022-08-01T01:29:23;101659.46;;;23.41;44.29
49108;BME280;36693;47.666;-2.774;2022-08-01T01:31:57;101659.69;;;24.24;44.29
49108;BME280;36693;47.666;-2.774;2022-08-01T01:34:28;101660.86;;;23.47;45.59
49108;BME280;36693;47.666;-2.774;2022-08-01T01:36:59;101663.23;;;24.04;45.04
49108;BME280;36693;47.666;-2.774;2022-08-01T01:39:30;101662.40;;;23.63;44.90
49108;BME280;36693;47.666;-2.774;2022-08-01T01:42:00;101658.63;;;23.78;45.36
49108;BME280;36693;47.666;-2.774;2022-08-01T01:44:29;101656.12;;;23.45;45.59
49108;BME280;36693;47.666;-2.774;2022-08-01T01:46:58;101658.06;;;23.50;45.07
49108;BME280;36693;47.666;-2.774;2022-08-01T01:49:27;101661.70;;;23.61;45.21
49108;BME280;36693;47.666;-2.774;2022-08-01T01:51:57;101661.13;;;23.83;44.69
49108;BME280;36693;47.666;-2.774;2022-08-01T01:54:29;101661.46;;;23.70;44.87
49108;BME280;36693;47.666;-2.774;2022-08-01T01:56:58;101666.00;;;23.33;44.64
49108;BME280;36693;47.666;-2.774;2022-08-01T01:59:28;101662.41;;;24.16;44.36
49108;BME280;36693;47.666;-2.774;2022-08-01T02:01:59;101666.16;;;23.94;44.12
49108;BME280;36693;47.666;-2.774;2022-08-01T02:04:28;101665.37;;;23.74;44.28
49108;BME280;36693;47.666;-2.774;2022-08-01T02:06:57;101663.83;;;23.91;43.53
49108;BME280;36693;47.666;-2.774;2022-08-01T02:09:28;101662.98;;;24.42;42.99
49108;BME280;36693;47.666;-2.774;2022-08-01T02:11:57;101659.68;;;24.21;43.31
49108;BME280;36693;47.666;-2.774;2022-08-01T02:14:27;101655.38;;;24.03;42.62
49108;BME280;36693;47.666;-2.774;2022-08-01T02:16:57;101652.87;;;24.23;42.72
49108;BME280;36693;47.666;-2.774;2022-08-01T02:19:25;101651.77;;;23.97;43.06
49108;BME280;36693;47.666;-2.774;2022-08-01T02:21:56;101656.59;;;24.35;42.65
49108;BME280;36693;47.666;-2.774;2022-08-01T02:24:31;101655.65;;;24.04;42.83
49108;BME280;36693;47.666;-2.774;2022-08-01T02:27:01;101656.16;;;24.18;43.00
49108;BME280;36693;47.666;-2.774;2022-08-01T02:29:37;101654.36;;;24.06;42.72
49108;BME280;36693;47.666;-2.774;2022-08-01T02:32:09;101650.31;;;24.33;42.90
49108;BME280;36693;47.666;-2.774;2022-08-01T02:34:38;101650.54;;;24.00;43.38
49108;BME280;36693;47.666;-2.774;2022-08-01T02:37:08;101651.15;;;23.82;43.76
49108;BME280;36693;47.666;-2.774;2022-08-01T02:39:38;101653.18;;;23.71;43.92
49108;BME280;36693;47.666;-2.774;2022-08-01T02:42:08;101653.12;;;23.74;43.72
49108;BME280;36693;47.666;-2.774;2022-08-01T02:44:40;101656.42;;;23.35;44.13
49108;BME280;36693;47.666;-2.774;2022-08-01T02:47:09;101655.09;;;23.89;43.57
49108;BME280;36693;47.666;-2.774;2022-08-01T02:49:41;101652.35;;;23.67;43.14
49108;BME280;36693;47.666;-2.774;2022-08-01T02:52:13;101653.73;;;23.66;42.69
49108;BME280;36693;47.666;-2.774;2022-08-01T02:54:43;101653.25;;;24.58;42.20
49108;BME280;36693;47.666;-2.774;2022-08-01T02:57:12;101653.39;;;24.31;42.59
49108;BME280;36693;47.666;-2.774;2022-08-01T02:59:42;101651.58;;;23.99;42.79
49108;BME280;36693;47.666;-2.774;2022-08-01T03:02:10;101652.87;;;24.31;42.51
49108;BME280;36693;47.666;-2.774;2022-08-01T03:04:41;101649.68;;;24.19;42.59
49108;BME280;36693;47.666;-2.774;2022-08-01T03:07:10;101645.82;;;23.79;43.17
49108;BME280;36693;47.666;-2.774;2022-08-01T03:09:40;101638.96;;;23.63;43.51
49108;BME280;36693;47.666;-2.774;2022-08-01T03:12:13;101644.38;;;23.72;43.68
49108;BME280;36693;47.666;-2.774;2022-08-01T03:14:43;101655.54;;;23.41;43.62
49108;BME280;36693;47.666;-2.774;2022-08-01T03:17:12;101653.58;;;23.12;43.97
49108;BME280;36693;47.666;-2.774;2022-08-01T03:19:40;101652.39;;;23.27;44.46
49108;BME280;36693;47.666;-2.774;2022-08-01T03:22:12;101653.22;;;22.72;44.94
49108;BME280;36693;47.666;-2.774;2022-08-01T03:24:42;101654.12;;;22.46;45.33
49108;BME280;36693;47.666;-2.774;2022-08-01T03:27:09;101651.74;;;22.53;45.27
49108;BME280;36693;47.666;-2.774;2022-08-01T03:29:37;101652.34;;;22.76;45.16
49108;BME280;36693;47.666;-2.774;2022-08-01T03:32:07;101651.31;;;22.75;45.04
49108;BME280;36693;47.666;-2.774;2022-08-01T03:34:37;101644.63;;;22.68;45.15
49108;BME280;36693;47.666;-2.774;2022-08-01T03:37:09;101640.73;;;22.39;45.24
49108;BME280;36693;47.666;-2.774;2022-08-01T03:39:47;101637.41;;;22.71;45.11
49108;BME280;36693;47.666;-2.774;2022-08-01T03:42:20;101636.58;;;22.42;45.59
49108;BME280;36693;47.666;-2.774;2022-08-01T03:44:54;101640.49;;;22.78;44.80
49108;BME280;36693;47.666;-2.774;2022-08-01T03:47:29;101642.07;;;22.88;44.70
49108;BME280;36693;47.666;-2.774;2022-08-01T03:49:58;101641.91;;;22.52;44.96
49108;BME280;36693;47.666;-2.774;2022-08-01T03:52:30;101644.94;;;22.90;44.65
49108;BME280;36693;47.666;-2.774;2022-08-01T03:55:03;101649.59;;;23.16;44.15
49108;BME280;36693;47.666;-2.774;2022-08-01T03:57:32;101652.33;;;23.01;44.46
49108;BME280;36693;47.666;-2.774;2022-08-01T04:00:02;101648.81;;;22.93;44.51
49108;BME280;36693;47.666;-2.774;2022-08-01T04:02:30;101653.50;;;22.96;44.45
49108;BME280;36693;47.666;-2.774;2022-08-01T04:04:59;101656.78;;;22.87;44.64
49108;BME280;36693;47.666;-2.774;2022-08-01T04:07:31;101657.77;;;22.73;44.27
49108;BME280;36693;47.666;-2.774;2022-08-01T04:09:58;101658.12;;;22.88;44.43
49108;BME280;36693;47.666;-2.774;2022-08-01T04:12:26;101659.57;;;22.66;44.14
49108;BME280;36693;47.666;-2.774;2022-08-01T04:14:54;101655.60;;;23.25;43.54
49108;BME280;36693;47.666;-2.774;2022-08-01T04:17:22;101649.29;;;23.02;43.71
49108;BME280;36693;47.666;-2.774;2022-08-01T04:19:49;101650.60;;;22.74;44.35
49108;BME280;36693;47.666;-2.774;2022-08-01T04:22:17;101654.07;;;22.98;43.55
49108;BME280;36693;47.666;-2.774;2022-08-01T04:24:48;101654.52;;;23.21;43.98
49108;BME280;36693;47.666;-2.774;2022-08-01T04:27:19;101653.97;;;23.01;43.86
49108;BME280;36693;47.666;-2.774;2022-08-01T04:29:50;101654.96;;;23.12;44.11
49108;BME280;36693;47.666;-2.774;2022-08-01T04:32:19;101656.05;;;23.08;43.87
49108;BME280;36693;47.666;-2.774;2022-08-01T04:34:48;101653.92;;;22.83;43.88
49108;BME280;36693;47.666;-2.774;2022-08-01T04:37:17;101653.16;;;22.96;43.43
49108;BME280;36693;47.666;-2.774;2022-08-01T04:39:47;101648.15;;;23.00;43.68
49108;BME280;36693;47.666;-2.774;2022-08-01T04:42:16;101649.56;;;23.24;43.19
49108;BME280;36693;47.666;-2.774;2022-08-01T04:44:44;101658.61;;;23.13;42.94
49108;BME280;36693;47.666;-2.774;2022-08-01T04:47:13;101658.67;;;23.06;43.04
49108;BME280;36693;47.666;-2.774;2022-08-01T04:49:41;101665.13;;;23.28;43.10
49108;BME280;36693;47.666;-2.774;2022-08-01T04:52:09;101666.02;;;22.95;43.63
49108;BME280;36693;47.666;-2.774;2022-08-01T04:54:37;101663.19;;;22.86;43.84
49108;BME280;36693;47.666;-2.774;2022-08-01T04:57:05;101667.20;;;23.00;43.89
49108;BME280;36693;47.666;-2.774;2022-08-01T04:59:36;101665.67;;;22.81;44.06
49108;BME280;36693;47.666;-2.774;2022-08-01T05:02:04;101663.31;;;22.74;43.80
49108;BME280;36693;47.666;-2.774;2022-08-01T05:04:32;101664.52;;;22.38;44.02
49108;BME280;36693;47.666;-2.774;2022-08-01T05:07:00;101666.10;;;22.95;43.42
49108;BME280;36693;47.666;-2.774;2022-08-01T05:09:27;101667.74;;;22.97;43.32
49108;BME280;36693;47.666;-2.774;2022-08-01T05:11:55;101673.03;;;22.41;44.19
49108;BME280;36693;47.666;-2.774;2022-08-01T05:14:23;101683.14;;;22.72;44.71
49108;BME280;36693;47.666;-2.774;2022-08-01T05:16:51;101682.28;;;22.09;44.97
49108;BME280;36693;47.666;-2.774;2022-08-01T05:19:19;101684.87;;;22.14;45.43
49108;BME280;36693;47.666;-2.774;2022-08-01T05:21:47;101682.13;;;21.85;45.51
49108;BME280;36693;47.666;-2.774;2022-08-01T05:24:15;101683.99;;;21.95;45.37
49108;BME280;36693;47.666;-2.774;2022-08-01T05:26:42;101687.13;;;22.70;44.60
49108;BME280;36693;47.666;-2.774;2022-08-01T05:29:10;101688.05;;;22.40;45.00
49108;BME280;36693;47.666;-2.774;2022-08-01T05:31:38;101696.96;;;22.91;43.21
49108;BME280;36693;47.666;-2.774;2022-08-01T05:34:06;101706.41;;;24.75;39.69
49108;BME280;36693;47.666;-2.774;2022-08-01T05:36:33;101700.24;;;25.57;37.78
49108;BME280;36693;47.666;-2.774;2022-08-01T05:39:01;101700.51;;;26.64;35.40
49108;BME280;36693;47.666;-2.774;2022-08-01T05:41:30;101701.96;;;26.26;36.37
49108;BME280;36693;47.666;-2.774;2022-08-01T05:43:58;101696.38;;;26.25;36.66
49108;BME280;36693;47.666;-2.774;2022-08-01T05:46:26;101697.57;;;27.26;35.37
49108;BME280;36693;47.666;-2.774;2022-08-01T05:48:53;101702.78;;;27.62;34.33
49108;BME280;36693;47.666;-2.774;2022-08-01T05:51:22;101711.95;;;28.73;32.82
49108;BME280;36693;47.666;-2.774;2022-08-01T05:53:50;101711.22;;;29.18;31.74
49108;BME280;36693;47.666;-2.774;2022-08-01T05:56:19;101702.77;;;29.48;30.83
49108;BME280;36693;47.666;-2.774;2022-08-01T05:58:47;101707.42;;;30.27;29.74
49108;BME280;36693;47.666;-2.774;2022-08-01T06:01:14;101713.74;;;30.89;29.05
49108;BME280;36693;47.666;-2.774;2022-08-01T06:03:42;101715.70;;;31.67;27.44
49108;BME280;36693;47.666;-2.774;2022-08-01T06:06:10;101719.76;;;32.28;26.98
49108;BME280;36693;47.666;-2.774;2022-08-01T06:08:37;101719.15;;;32.37;26.78
49108;BME280;36693;47.666;-2.774;2022-08-01T06:11:05;101721.43;;;32.28;26.84
49108;BME280;36693;47.666;-2.774;2022-08-01T06:13:33;101723.62;;;33.40;25.43
49108;BME280;36693;47.666;-2.774;2022-08-01T06:16:00;101731.37;;;34.00;24.58
49108;BME280;36693;47.666;-2.774;2022-08-01T06:18:29;101732.03;;;34.00;23.67
49108;BME280;36693;47.666;-2.774;2022-08-01T06:20:56;101723.62;;;35.29;23.10
49108;BME280;36693;47.666;-2.774;2022-08-01T06:23:24;101721.57;;;34.72;23.72
49108;BME280;36693;47.666;-2.774;2022-08-01T06:25:53;101720.99;;;34.85;23.33
49108;BME280;36693;47.666;-2.774;2022-08-01T06:28:21;101728.78;;;35.49;22.51
49108;BME280;36693;47.666;-2.774;2022-08-01T06:30:48;101726.96;;;36.03;21.97
49108;BME280;36693;47.666;-2.774;2022-08-01T06:33:16;101728.05;;;35.48;22.97
49108;BME280;36693;47.666;-2.774;2022-08-01T06:35:43;101725.41;;;35.55;22.76
49108;BME280;36693;47.666;-2.774;2022-08-01T06:38:11;101728.88;;;35.34;22.79
49108;BME280;36693;47.666;-2.774;2022-08-01T06:40:39;101730.40;;;35.79;22.33
49108;BME280;36693;47.666;-2.774;2022-08-01T06:43:07;101734.26;;;35.45;22.97
49108;BME280;36693;47.666;-2.774;2022-08-01T06:45:34;101728.73;;;34.39;24.02
49108;BME280;36693;47.666;-2.774;2022-08-01T06:48:02;101730.61;;;34.93;23.48
49108;BME280;36693;47.666;-2.774;2022-08-01T06:50:30;101734.97;;;33.15;25.71
49108;BME280;36693;47.666;-2.774;2022-08-01T06:52:57;101731.92;;;31.47;27.97
49108;BME280;36693;47.666;-2.774;2022-08-01T06:55:25;101733.75;;;29.16;30.94
49108;BME280;36693;47.666;-2.774;2022-08-01T06:57:53;101728.65;;;27.73;33.96
49108;BME280;36693;47.666;-2.774;2022-08-01T07:00:22;101728.19;;;26.89;35.46
49108;BME280;36693;47.666;-2.774;2022-08-01T07:02:50;101732.63;;;25.61;37.51
49108;BME280;36693;47.666;-2.774;2022-08-01T07:05:18;101739.29;;;25.14;38.86
49108;BME280;36693;47.666;-2.774;2022-08-01T07:07:45;101734.54;;;24.00;41.22
49108;BME280;36693;47.666;-2.774;2022-08-01T07:10:13;101733.57;;;24.12;41.12
49108;BME280;36693;47.666;-2.774;2022-08-01T07:12:41;101738.76;;;23.72;42.05
49108;BME280;36693;47.666;-2.774;2022-08-01T07:15:10;101737.77;;;24.15;41.45
49108;BME280;36693;47.666;-2.774;2022-08-01T07:17:38;101728.63;;;23.51;42.74
49108;BME280;36693;47.666;-2.774;2022-08-01T07:20:08;101728.48;;;23.22;43.11
49108;BME280;36693;47.666;-2.774;2022-08-01T07:22:36;101730.29;;;23.02;43.47
49108;BME280;36693;47.666;-2.774;2022-08-01T07:25:05;101734.42;;;23.47;41.96
49108;BME280;36693;47.666;-2.774;2022-08-01T07:27:32;101738.71;;;22.89;43.74
49108;BME280;36693;47.666;-2.774;2022-08-01T07:30:01;101748.83;;;23.23;42.88
49108;BME280;36693;47.666;-2.774;2022-08-01T07:32:30;101749.85;;;23.65;41.91
49108;BME280;36693;47.666;-2.774;2022-08-01T07:34:58;101749.22;;;23.92;41.38
49108;BME280;36693;47.666;-2.774;2022-08-01T07:37:26;101744.94;;;24.27;40.60
49108;BME280;36693;47.666;-2.774;2022-08-01T07:39:53;101741.40;;;25.07;38.71
49108;BME280;36693;47.666;-2.774;2022-08-01T07:42:21;101744.23;;;25.20;38.08
49108;BME280;36693;47.666;-2.774;2022-08-01T07:44:49;101746.12;;;24.72;39.28
49108;BME280;36693;47.666;-2.774;2022-08-01T07:47:22;101741.41;;;24.45;40.16
49108;BME280;36693;47.666;-2.774;2022-08-01T07:49:50;101740.27;;;24.29;39.79
49108;BME280;36693;47.666;-2.774;2022-08-01T07:52:19;101746.50;;;24.95;38.53
49108;BME280;36693;47.666;-2.774;2022-08-01T07:54:47;101752.96;;;25.47;37.36
49108;BME280;36693;47.666;-2.774;2022-08-01T07:57:14;101756.23;;;26.24;37.25
49108;BME280;36693;47.666;-2.774;2022-08-01T07:59:42;101749.60;;;25.81;37.63
49108;BME280;36693;47.666;-2.774;2022-08-01T08:02:10;101750.39;;;25.66;37.06
49108;BME280;36693;47.666;-2.774;2022-08-01T08:04:37;101753.37;;;24.80;38.72
49108;BME280;36693;47.666;-2.774;2022-08-01T08:07:05;101751.39;;;24.50;39.46
49108;BME280;36693;47.666;-2.774;2022-08-01T08:09:33;101755.03;;;24.22;39.80
49108;BME280;36693;47.666;-2.774;2022-08-01T08:12:01;101751.20;;;24.28;39.53
49108;BME280;36693;47.666;-2.774;2022-08-01T08:14:28;101749.82;;;24.48;39.51
49108;BME280;36693;47.666;-2.774;2022-08-01T08:16:56;101748.11;;;24.94;38.45
49108;BME280;36693;47.666;-2.774;2022-08-01T08:19:24;101748.92;;;25.60;36.79
49108;BME280;36693;47.666;-2.774;2022-08-01T08:21:51;101748.74;;;26.27;35.82
49108;BME280;36693;47.666;-2.774;2022-08-01T08:24:19;101731.82;;;27.04;34.62
49108;BME280;36693;47.666;-2.774;2022-08-01T08:26:48;101737.54;;;26.93;34.67
49108;BME280;36693;47.666;-2.774;2022-08-01T08:29:16;101750.22;;;27.15;34.51
49108;BME280;36693;47.666;-2.774;2022-08-01T08:31:43;101751.42;;;28.80;31.96
49108;BME280;36693;47.666;-2.774;2022-08-01T08:34:11;101749.94;;;29.76;30.63
49108;BME280;36693;47.666;-2.774;2022-08-01T08:36:39;101755.42;;;30.06;30.04
49108;BME280;36693;47.666;-2.774;2022-08-01T08:39:07;101753.91;;;30.00;29.84
49108;BME280;36693;47.666;-2.774;2022-08-01T08:41:36;101754.18;;;29.85;29.85
49108;BME280;36693;47.666;-2.774;2022-08-01T08:44:05;101756.42;;;29.90;29.99
49108;BME280;36693;47.666;-2.774;2022-08-01T08:46:34;101756.79;;;29.01;31.57
49108;BME280;36693;47.666;-2.774;2022-08-01T08:49:07;101756.84;;;28.08;32.69
49108;BME280;36693;47.666;-2.774;2022-08-01T08:51:38;101755.60;;;27.58;33.26
49108;BME280;36693;47.666;-2.774;2022-08-01T08:54:07;101754.37;;;27.58;33.64
49108;BME280;36693;47.666;-2.774;2022-08-01T08:56:38;101756.77;;;27.95;34.11
49108;BME280;36693;47.666;-2.774;2022-08-01T08:59:05;101750.09;;;26.82;35.12
49108;BME280;36693;47.666;-2.774;2022-08-01T09:01:33;101742.62;;;27.42;33.99
49108;BME280;36693;47.666;-2.774;2022-08-01T09:04:02;101740.64;;;27.54;33.97
49108;BME280;36693;47.666;-2.774;2022-08-01T09:06:32;101740.08;;;27.78;33.85
49108;BME280;36693;47.666;-2.774;2022-08-01T09:09:00;101743.10;;;28.67;32.04
49108;BME280;36693;47.666;-2.774;2022-08-01T09:11:28;101747.10;;;29.10;31.34
49108;BME280;36693;47.666;-2.774;2022-08-01T09:14:06;101752.99;;;28.39;32.00
49108;BME280;36693;47.666;-2.774;2022-08-01T09:16:36;101752.97;;;29.53;30.41
49108;BME280;36693;47.666;-2.774;2022-08-01T09:19:08;101745.58;;;29.74;30.19
49108;BME280;36693;47.666;-2.774;2022-08-01T09:21:37;101751.19;;;29.45;30.91
49108;BME280;36693;47.666;-2.774;2022-08-01T09:24:14;101749.40;;;29.39;31.18
49108;BME280;36693;47.666;-2.774;2022-08-01T09:26:42;101747.77;;;28.88;32.00
49108;BME280;36693;47.666;-2.774;2022-08-01T09:29:23;101744.85;;;29.06;31.78
49108;BME280;36693;47.666;-2.774;2022-08-01T09:31:52;101740.00;;;27.91;33.79
49108;BME280;36693;47.666;-2.774;2022-08-01T09:34:25;101741.16;;;27.65;34.28
49108;BME280;36693;47.666;-2.774;2022-08-01T09:36:55;101746.34;;;28.02;33.20
49108;BME280;36693;47.666;-2.774;2022-08-01T09:39:24;101745.63;;;28.22;33.16
49108;BME280;36693;47.666;-2.774;2022-08-01T09:41:52;101746.92;;;28.72;32.60
49108;BME280;36693;47.666;-2.774;2022-08-01T09:44:37;101750.77;;;28.87;32.52
49108;BME280;36693;47.666;-2.774;2022-08-01T09:47:05;101746.86;;;29.24;31.56
49108;BME280;36693;47.666;-2.774;2022-08-01T09:49:34;101744.77;;;29.14;31.16
49108;BME280;36693;47.666;-2.774;2022-08-01T09:52:12;101746.73;;;29.50;31.05
49108;BME280;36693;47.666;-2.774;2022-08-01T09:54:41;101741.95;;;28.78;32.01
49108;BME280;36693;47.666;-2.774;2022-08-01T09:57:11;101737.56;;;28.49;32.84
49108;BME280;36693;47.666;-2.774;2022-08-01T09:59:42;101736.58;;;28.73;32.33
49108;BME280;36693;47.666;-2.774;2022-08-01T10:02:12;101731.63;;;26.92;34.83
49108;BME280;36693;47.666;-2.774;2022-08-01T10:04:49;101742.05;;;27.48;34.30
49108;BME280;36693;47.666;-2.774;2022-08-01T10:07:18;101746.62;;;27.97;33.76
49108;BME280;36693;47.666;-2.774;2022-08-01T10:09:46;101748.01;;;28.01;33.77
49108;BME280;36693;47.666;-2.774;2022-08-01T10:12:16;101754.75;;;28.31;33.40
49108;BME280;36693;47.666;-2.774;2022-08-01T10:14:45;101759.51;;;29.19;32.27
49108;BME280;36693;47.666;-2.774;2022-08-01T10:17:15;101755.57;;;29.00;32.46
49108;BME280;36693;47.666;-2.774;2022-08-01T10:19:44;101754.57;;;28.77;32.56
49108;BME280;36693;47.666;-2.774;2022-08-01T10:22:13;101755.90;;;29.38;31.45
49108;BME280;36693;47.666;-2.774;2022-08-01T10:24:43;101747.15;;;29.24;31.29
49108;BME280;36693;47.666;-2.774;2022-08-01T10:27:11;101741.89;;;28.67;32.57
49108;BME280;36693;47.666;-2.774;2022-08-01T10:29:44;101743.55;;;28.97;32.19
49108;BME280;36693;47.666;-2.774;2022-08-01T10:32:13;101743.42;;;30.07;31.04
49108;BME280;36693;47.666;-2.774;2022-08-01T10:34:41;101746.82;;;29.86;30.97
49108;BME280;36693;47.666;-2.774;2022-08-01T10:37:10;101744.90;;;29.70;31.32
49108;BME280;36693;47.666;-2.774;2022-08-01T10:39:39;101742.16;;;29.37;31.80
49108;BME280;36693;47.666;-2.774;2022-08-01T10:42:10;101742.56;;;28.64;32.20
49108;BME280;36693;47.666;-2.774;2022-08-01T10:44:39;101743.21;;;29.07;32.08
49108;BME280;36693;47.666;-2.774;2022-08-01T10:47:11;101742.00;;;29.74;31.56
49108;BME280;36693;47.666;-2.774;2022-08-01T10:49:44;101737.15;;;29.12;32.45
49108;BME280;36693;47.666;-2.774;2022-08-01T10:52:15;101732.87;;;29.36;31.82
49108;BME280;36693;47.666;-2.774;2022-08-01T10:54:44;101722.21;;;28.22;33.24
49108;BME280;36693;47.666;-2.774;2022-08-01T10:57:11;101718.99;;;28.46;33.13
49108;BME280;36693;47.666;-2.774;2022-08-01T10:59:49;101717.32;;;28.54;32.99
49108;BME280;36693;47.666;-2.774;2022-08-01T11:02:27;101714.02;;;29.26;32.05
49108;BME280;36693;47.666;-2.774;2022-08-01T11:05:00;101706.77;;;29.83;31.25
49108;BME280;36693;47.666;-2.774;2022-08-01T11:07:43;101705.49;;;29.79;30.93
49108;BME280;36693;47.666;-2.774;2022-08-01T11:10:22;101707.67;;;29.02;31.80
49108;BME280;36693;47.666;-2.774;2022-08-01T11:12:52;101703.18;;;29.04;32.25
49108;BME280;36693;47.666;-2.774;2022-08-01T11:15:23;101702.38;;;29.13;31.53
49108;BME280;36693;47.666;-2.774;2022-08-01T11:17:53;101703.65;;;30.09;30.97
49108;BME280;36693;47.666;-2.774;2022-08-01T11:20:22;101703.55;;;29.80;31.14
49108;BME280;36693;47.666;-2.774;2022-08-01T11:23:22;101698.88;;;29.32;31.78
49108;BME280;36693;47.666;-2.774;2022-08-01T11:26:08;101704.06;;;28.27;33.40
49108;BME280;36693;47.666;-2.774;2022-08-01T11:28:37;101708.89;;;29.09;32.17
49108;BME280;36693;47.666;-2.774;2022-08-01T11:31:37;101707.50;;;28.84;32.42
49108;BME280;36693;47.666;-2.774;2022-08-01T11:34:06;101707.70;;;29.33;32.10
49108;BME280;36693;47.666;-2.774;2022-08-01T11:36:34;101704.64;;;29.43;31.93
49108;BME280;36693;47.666;-2.774;2022-08-01T11:39:18;101703.66;;;29.06;31.97
49108;BME280;36693;47.666;-2.774;2022-08-01T11:41:47;101700.46;;;29.82;31.59
49108;BME280;36693;47.666;-2.774;2022-08-01T11:44:20;101698.36;;;29.85;31.10
49108;BME280;36693;47.666;-2.774;2022-08-01T11:46:50;101699.64;;;29.49;31.17
49108;BME280;36693;47.666;-2.774;2022-08-01T11:49:25;101701.84;;;28.63;32.47
49108;BME280;36693;47.666;-2.774;2022-08-01T11:51:59;101698.94;;;29.20;32.31
49108;BME280;36693;47.666;-2.774;2022-08-01T11:54:28;101693.28;;;29.37;32.09
49108;BME280;36693;47.666;-2.774;2022-08-01T11:56:58;101687.89;;;29.65;31.59
49108;BME280;36693;47.666;-2.774;2022-08-01T11:59:26;101687.05;;;30.01;30.86
49108;BME280;36693;47.666;-2.774;2022-08-01T12:01:54;101687.23;;;29.43;31.21
49108;BME280;36693;47.666;-2.774;2022-08-01T12:04:22;101691.45;;;29.85;31.19
49108;BME280;36693;47.666;-2.774;2022-08-01T12:06:49;101694.70;;;30.47;30.94
49108;BME280;36693;47.666;-2.774;2022-08-01T12:09:20;101689.65;;;29.74;32.96
49108;BME280;36693;47.666;-2.774;2022-08-01T12:11:49;101692.62;;;29.50;33.62
49108;BME280;36693;47.666;-2.774;2022-08-01T12:14:20;101690.02;;;30.11;32.05
49108;BME280;36693;47.666;-2.774;2022-08-01T12:16:51;101686.35;;;30.07;32.42
49108;BME280;36693;47.666;-2.774;2022-08-01T12:19:21;101691.94;;;28.64;33.82
49108;BME280;36693;47.666;-2.774;2022-08-01T12:22:23;101688.28;;;29.25;33.16
49108;BME280;36693;47.666;-2.774;2022-08-01T12:24:51;101688.51;;;28.44;35.36
49108;BME280;36693;47.666;-2.774;2022-08-01T12:27:28;101689.70;;;28.20;35.20
49108;BME280;36693;47.666;-2.774;2022-08-01T12:29:58;101679.71;;;28.46;35.56
49108;BME280;36693;47.666;-2.774;2022-08-01T12:32:28;101687.81;;;28.39;35.50
49108;BME280;36693;47.666;-2.774;2022-08-01T12:34:56;101675.00;;;27.37;36.51
49108;BME280;36693;47.666;-2.774;2022-08-01T12:37:23;101675.16;;;28.07;36.65
49108;BME280;36693;47.666;-2.774;2022-08-01T12:39:51;101676.74;;;27.59;36.39
49108;BME280;36693;47.666;-2.774;2022-08-01T12:42:20;101677.09;;;28.72;35.02
49108;BME280;36693;47.666;-2.774;2022-08-01T12:44:50;101677.66;;;28.68;35.26
49108;BME280;36693;47.666;-2.774;2022-08-01T12:47:21;101673.33;;;27.54;36.71
49108;BME280;36693;47.666;-2.774;2022-08-01T12:49:49;101668.73;;;28.03;36.28
49108;BME280;36693;47.666;-2.774;2022-08-01T12:52:18;101664.43;;;27.88;37.14
49108;BME280;36693;47.666;-2.774;2022-08-01T12:55:20;101665.33;;;27.12;38.06